Map

Track Data

SID SEASON NUMBER BASIN SUBBASIN NAME ISO_TIME NATURE LAT LON WMO_WIND WMO_PRES WMO_AGENCY TRACK_TYPE DIST2LAND LANDFALL IFLAG USA_AGENCY USA_ATCF_ID USA_LAT USA_LON USA_RECORD USA_STATUS USA_WIND USA_PRES USA_SSHS USA_R34_NE USA_R34_SE USA_R34_SW USA_R34_NW USA_R50_NE USA_R50_SE USA_R50_SW USA_R50_NW USA_R64_NE USA_R64_SE USA_R64_SW USA_R64_NW USA_POCI USA_ROCI USA_RMW USA_EYE TOKYO_LAT TOKYO_LON TOKYO_GRADE TOKYO_WIND TOKYO_PRES TOKYO_R50_DIR TOKYO_R50_LONG TOKYO_R50_SHORT TOKYO_R30_DIR TOKYO_R30_LONG TOKYO_R30_SHORT TOKYO_LAND CMA_LAT CMA_LON CMA_CAT CMA_WIND CMA_PRES HKO_LAT HKO_LON HKO_CAT HKO_WIND HKO_PRES NEWDELHI_LAT NEWDELHI_LON NEWDELHI_GRADE NEWDELHI_WIND NEWDELHI_PRES NEWDELHI_CI NEWDELHI_DP NEWDELHI_POCI REUNION_LAT REUNION_LON REUNION_TYPE REUNION_WIND REUNION_PRES REUNION_TNUM REUNION_CI REUNION_RMW REUNION_R34_NE REUNION_R34_SE REUNION_R34_SW REUNION_R34_NW REUNION_R50_NE REUNION_R50_SE REUNION_R50_SW REUNION_R50_NW REUNION_R64_NE REUNION_R64_SE REUNION_R64_SW REUNION_R64_NW BOM_LAT BOM_LON BOM_TYPE BOM_WIND BOM_PRES BOM_TNUM BOM_CI BOM_RMW BOM_R34_NE BOM_R34_SE BOM_R34_SW BOM_R34_NW BOM_R50_NE BOM_R50_SE BOM_R50_SW BOM_R50_NW BOM_R64_NE BOM_R64_SE BOM_R64_SW BOM_R64_NW BOM_ROCI BOM_POCI BOM_EYE BOM_POS_METHOD BOM_PRES_METHOD NADI_LAT NADI_LON NADI_CAT NADI_WIND NADI_PRES WELLINGTON_LAT WELLINGTON_LON WELLINGTON_WIND WELLINGTON_PRES DS824_LAT DS824_LON DS824_STAGE DS824_WIND DS824_PRES TD9636_LAT TD9636_LON TD9636_STAGE TD9636_WIND TD9636_PRES TD9635_LAT TD9635_LON TD9635_WIND TD9635_PRES TD9635_ROCI NEUMANN_LAT NEUMANN_LON NEUMANN_CLASS NEUMANN_WIND NEUMANN_PRES MLC_LAT MLC_LON MLC_CLASS MLC_WIND MLC_PRES USA_GUST BOM_GUST BOM_GUST_PER REUNION_GUST REUNION_GUST_PER USA_SEAHGT USA_SEARAD_NE USA_SEARAD_SE USA_SEARAD_SW USA_SEARAD_NW STORM_SPEED STORM_DIR
1903217N20124 1903 35 WP MM NOT_NAMED 1903-08-04 16:00:00 NR 20.0000 124.200 main 268 268 __________O___ -1 20.0000 124.200 7 1 0
1903217N20124 1903 35 WP MM NOT_NAMED 1903-08-04 18:00:00 NR 19.9980 124.219 main 268 268 __________P___ -1 19.9980 124.219 7 0 0
1903217N20124 1903 35 WP MM NOT_NAMED 1903-08-04 21:00:00 NR 20.0208 124.214 main 268 268 __________P___ -1 20.0208 124.214 7 1 322
1903217N20124 1903 35 WP MM NOT_NAMED 1903-08-05 00:00:00 NR 20.1098 124.128 main 268 268 __________P___ -1 20.1098 124.128 7 4 315
1903217N20124 1903 35 WP MM NOT_NAMED 1903-08-05 03:00:00 NR 20.3047 123.911 main 270 270 __________P___ -1 20.3047 123.911 7 6 313
1903217N20124 1903 35 WP MM NOT_NAMED 1903-08-05 04:00:00 NR 20.4000 123.800 main 273 271 __________O___ -1 20.4000 123.800 7 10 312
1903217N20124 1903 35 WP MM NOT_NAMED 1903-08-05 06:00:00 NR 20.6394 123.517 main 276 234 __________P___ -1 20.6394 123.517 7 12 312
1903217N20124 1903 35 WP MM NOT_NAMED 1903-08-05 09:00:00 NR 21.0869 122.978 main 234 158 __________P___ -1 21.0869 122.978 7 14 311
1903217N20124 1903 35 WP MM NOT_NAMED 1903-08-05 12:00:00 NR 21.5813 122.371 main 158 92 __________P___ -1 21.5813 122.371 7 15 311
1903217N20124 1903 35 WP MM NOT_NAMED 1903-08-05 15:00:00 NR 22.0568 121.780 main 92 72 __________P___ -1 22.0568 121.780 7 14 311
1903217N20124 1903 35 WP MM NOT_NAMED 1903-08-05 16:00:00 NR 22.2000 121.600 main 72 38 __________O___ -1 22.2000 121.600 3 11 311
1903217N20124 1903 35 WP MM NOT_NAMED 1903-08-05 18:00:00 NR 22.4199 121.322 main 38 0 __________P___ -1 22.4199 121.322 3 9 310
1903217N20124 1903 35 WP MM NOT_NAMED 1903-08-05 21:00:00 NR 22.7061 120.957 main 0 0 __________P___ -1 22.7061 120.957 3 8 310
1903217N20124 1903 35 WP MM NOT_NAMED 1903-08-06 00:00:00 NR 22.9623 120.629 main 0 0 __________P___ -1 22.9623 120.629 3 8 310
1903217N20124 1903 35 WP MM NOT_NAMED 1903-08-06 03:00:00 NR 23.2133 120.310 main 0 0 __________P___ -1 23.2133 120.310 3 8 311
1903217N20124 1903 35 WP MM NOT_NAMED 1903-08-06 04:00:00 NR 23.3000 120.200 main 0 0 __________O___ -1 23.3000 120.200 4 9 311
1903217N20124 1903 35 WP MM NOT_NAMED 1903-08-06 06:00:00 NR 23.4942 119.953 main 15 20 __________P___ -1 23.4942 119.953 4 9 311
1903217N20124 1903 35 WP MM NOT_NAMED 1903-08-06 09:00:00 NR 23.7919 119.576 main 55 55 __________P___ -1 23.7919 119.576 4 9 311
1903217N20124 1903 35 WP MM NOT_NAMED 1903-08-06 12:00:00 NR 24.0944 119.197 main 75 23 __________P___ -1 24.0944 119.197 4 9 311
1903217N20124 1903 35 WP MM NOT_NAMED 1903-08-06 15:00:00 NR 24.3987 118.823 main 23 10 __________P___ -1 24.3987 118.823 4 9 312
1903217N20124 1903 35 WP MM NOT_NAMED 1903-08-06 16:00:00 NR 24.5000 118.700 main 10 0 __________O___ -1 24.5000 118.700 4 9 313
1903217N20124 1903 35 WP MM NOT_NAMED 1903-08-06 18:00:00 NR 24.6970 118.468 main 0 0 __________P___ -1 24.6970 118.468 4 9 313
1903217N20124 1903 35 WP MM NOT_NAMED 1903-08-06 21:00:00 NR 24.9926 118.127 main 0 0 __________P___ -1 24.9926 118.127 4 9 314
1903217N20124 1903 35 WP MM NOT_NAMED 1903-08-07 00:00:00 NR 25.2914 117.784 main 0 0 __________P___ -1 25.2914 117.784 4 9 314
1903217N20124 1903 35 WP MM NOT_NAMED 1903-08-07 03:00:00 NR 25.5964 117.425 main 0 0 __________P___ -1 25.5964 117.425 4 9 313
1903217N20124 1903 35 WP MM NOT_NAMED 1903-08-07 04:00:00 NR 25.7000 117.300 main 0 0 __________O___ -1 25.7000 117.300 7 9 311
1903217N20124 1903 35 WP MM NOT_NAMED 1903-08-07 06:00:00 NR 25.9056 117.036 main 0 0 __________P___ -1 25.9056 117.036 7 10 310
1903217N20124 1903 35 WP MM NOT_NAMED 1903-08-07 09:00:00 NR 26.2202 116.621 main 0 0 __________P___ -1 26.2202 116.621 7 10 310
1903217N20124 1903 35 WP MM NOT_NAMED 1903-08-07 12:00:00 NR 26.5452 116.190 main 0 0 __________P___ -1 26.5452 116.190 7 10 310
1903217N20124 1903 35 WP MM NOT_NAMED 1903-08-07 15:00:00 NR 26.8836 115.748 main 0 0 __________P___ -1 26.8836 115.748 7 10 311
1903217N20124 1903 35 WP MM NOT_NAMED 1903-08-07 16:00:00 NR 27.0000 115.600 main 0 0 __________O___ -1 27.0000 115.600 7 11 312
1903217N20124 1903 35 WP MM NOT_NAMED 1903-08-07 18:00:00 NR 27.2385 115.303 main 0 0 __________P___ -1 27.2385 115.303 7 11 313
1903217N20124 1903 35 WP MM NOT_NAMED 1903-08-07 21:00:00 NR 27.6079 114.855 main 0 0 __________P___ -1 27.6079 114.855 7 11 313
1903217N20124 1903 35 WP MM NOT_NAMED 1903-08-08 00:00:00 NR 27.9873 114.405 main 0 0 __________P___ -1 27.9873 114.405 7 11 314
1903217N20124 1903 35 WP MM NOT_NAMED 1903-08-08 03:00:00 NR 28.3716 113.952 main 0 0 __________P___ -1 28.3716 113.952 7 11 314
1903217N20124 1903 35 WP MM NOT_NAMED 1903-08-08 04:00:00 NR 28.5000 113.800 main 0 __________O___ -1 28.5000 113.800 7 11 314

Digital Typhoon Data and Search

About IBTrACS Database

This database is a web-friendly format of International Best Track Archive for Climate Stewardship (IBTrACS), a global best track data archive curated by NOAA dating back to 1842.

Updated: 2021-10-19